createdAt,value
2023-04-11T00:00:59.607Z,98414.78
2023-04-11T00:03:29.174Z,98418.09
2023-04-11T00:05:57.285Z,98413.06
2023-04-11T00:08:25.604Z,98413.84
2023-04-11T00:10:53.570Z,98414.75
2023-04-11T00:13:21.528Z,98409.53
2023-04-11T00:15:49.533Z,98408.03
2023-04-11T00:18:18.921Z,98406.09
2023-04-11T00:20:46.891Z,98400.50
2023-04-11T00:23:14.865Z,98396.53
2023-04-11T00:25:43.100Z,98392.25
2023-04-11T00:28:11.446Z,98390.09
2023-04-11T00:30:39.682Z,98385.38
2023-04-11T00:33:08.016Z,98391.63
2023-04-11T00:35:39.490Z,98401.63
2023-04-11T00:38:07.786Z,98388.69
2023-04-11T00:40:35.875Z,98386.31
2023-04-11T00:43:04.456Z,98386.47
2023-04-11T00:45:32.667Z,98386.94
2023-04-11T00:48:01.128Z,98379.59
2023-04-11T00:50:29.987Z,98381.59
2023-04-11T00:52:59.689Z,98368.78
2023-04-11T00:55:28.455Z,98372.00
2023-04-11T00:57:56.677Z,98363.88
2023-04-11T01:00:25.675Z,98355.34
2023-04-11T01:02:54.667Z,98355.34
2023-04-11T01:05:22.886Z,98350.03
2023-04-11T01:07:54.980Z,98354.22
2023-04-11T01:10:28.932Z,98344.31
2023-04-11T01:12:58.577Z,98347.38
2023-04-11T01:15:26.726Z,98341.44
2023-04-11T01:17:55.611Z,98335.94
2023-04-11T01:20:24.036Z,98342.91
2023-04-11T01:22:52.560Z,98343.84
2023-04-11T01:25:22.874Z,98330.84
2023-04-11T01:27:51.023Z,98336.81
2023-04-11T01:30:19.037Z,98333.44
2023-04-11T01:32:50.566Z,98336.09
2023-04-11T01:35:20.369Z,98327.22
2023-04-11T01:37:48.655Z,98323.94
2023-04-11T01:40:19.059Z,98321.78
2023-04-11T01:42:49.818Z,98321.63
2023-04-11T01:45:19.093Z,98323.47
2023-04-11T01:47:49.596Z,98326.22
2023-04-11T01:50:19.054Z,98325.13
2023-04-11T01:52:47.455Z,98323.03
2023-04-11T01:55:15.585Z,98318.28
2023-04-11T01:57:43.824Z,98311.75
2023-04-11T02:00:14.722Z,98304.38
2023-04-11T02:02:43.087Z,98307.03
2023-04-11T02:05:11.722Z,98299.09
2023-04-11T02:07:39.712Z,98289.56
2023-04-11T02:10:09.240Z,98289.50
2023-04-11T02:12:37.289Z,98278.59
2023-04-11T02:15:06.365Z,98275.47
2023-04-11T02:17:37.051Z,98280.44
2023-04-11T02:20:07.283Z,98284.28
2023-04-11T02:22:35.292Z,98285.06
2023-04-11T02:25:03.354Z,98282.78
2023-04-11T02:27:32.207Z,98275.34
2023-04-11T02:30:00.992Z,98282.25
2023-04-11T02:32:30.555Z,98286.94
2023-04-11T02:34:59.953Z,98277.25
2023-04-11T02:37:28.255Z,98274.50
2023-04-11T02:39:59.740Z,98268.63
2023-04-11T02:42:27.829Z,98268.81
2023-04-11T02:44:56.629Z,98269.03
2023-04-11T02:47:28.876Z,98270.06
2023-04-11T02:50:03.047Z,98260.13
2023-04-11T02:52:37.745Z,98257.84
2023-04-11T02:55:06.348Z,98255.94
2023-04-11T02:57:34.500Z,98250.03
2023-04-11T03:00:03.510Z,98253.44
2023-04-11T03:02:41.761Z,98254.63
2023-04-11T03:05:11.727Z,98259.84
2023-04-11T03:07:41.108Z,98261.22
2023-04-11T03:10:11.219Z,98254.25
2023-04-11T03:12:39.325Z,98252.13
2023-04-11T03:15:10.132Z,98245.59
2023-04-11T03:17:38.265Z,98242.03
2023-04-11T03:20:08.451Z,98243.50
2023-04-11T03:22:37.901Z,98243.81
2023-04-11T03:25:07.771Z,98240.19
2023-04-11T03:27:36.147Z,98223.69
2023-04-11T03:30:06.445Z,98232.69
2023-04-11T03:32:42.024Z,98231.81
2023-04-11T03:35:10.791Z,98232.88
2023-04-11T03:37:43.787Z,98225.88
2023-04-11T03:40:12.502Z,98223.50
2023-04-11T03:42:44.718Z,98219.22
2023-04-11T03:45:16.927Z,98225.91
2023-04-11T03:47:45.162Z,98226.63
2023-04-11T03:50:15.171Z,98209.47
2023-04-11T03:52:49.084Z,98211.44
2023-04-11T03:55:18.630Z,98206.59
2023-04-11T03:57:46.699Z,98198.47
2023-04-11T04:00:15.912Z,98198.81
2023-04-11T04:02:49.342Z,98202.16
2023-04-11T04:05:17.622Z,98198.06
2023-04-11T04:07:45.868Z,98201.91
2023-04-11T04:10:30.265Z,98203.19
2023-04-11T04:12:58.320Z,98207.63
2023-04-11T04:15:33.946Z,98203.56
2023-04-11T04:18:03.768Z,98213.69
2023-04-11T04:20:43.258Z,98207.31
2023-04-11T04:23:14.238Z,98205.84
2023-04-11T04:26:02.351Z,98215.91
2023-04-11T04:28:33.240Z,98219.81
2023-04-11T04:31:04.397Z,98220.75
2023-04-11T04:33:42.814Z,98212.44
2023-04-11T04:36:19.075Z,98207.44
2023-04-11T04:38:51.497Z,98203.81
2023-04-11T04:41:24.052Z,98206.53
2023-04-11T04:44:00.183Z,98203.31
2023-04-11T04:46:39.940Z,98199.25
2023-04-11T04:49:08.988Z,98197.13
2023-04-11T04:51:38.724Z,98201.25
2023-04-11T04:54:07.272Z,98200.41
2023-04-11T04:56:36.678Z,98192.81
2023-04-11T04:59:05.484Z,98193.00
2023-04-11T05:01:35.317Z,98187.31
2023-04-11T05:04:05.979Z,98175.00
2023-04-11T05:06:55.877Z,98175.31
2023-04-11T05:09:24.553Z,98168.25
2023-04-11T05:11:57.976Z,98169.63
2023-04-11T05:14:26.150Z,98170.09
2023-04-11T05:16:54.169Z,98164.88
2023-04-11T05:19:22.202Z,98167.13
2023-04-11T05:21:52.545Z,98154.78
2023-04-11T05:24:20.629Z,98159.63
2023-04-11T05:26:49.500Z,98162.22
2023-04-11T05:29:22.097Z,98171.66
2023-04-11T05:31:50.698Z,98160.69
2023-04-11T05:34:19.039Z,98163.63
2023-04-11T05:36:49.958Z,98159.69
2023-04-11T05:39:17.974Z,98149.94
2023-04-11T05:41:45.963Z,98151.72
2023-04-11T05:44:14.015Z,98146.63
2023-04-11T05:46:43.401Z,98148.47
2023-04-11T05:49:11.698Z,98144.50
2023-04-11T05:51:39.832Z,98126.13
2023-04-11T05:54:08.352Z,98128.06
2023-04-11T05:56:38.271Z,98126.56
2023-04-11T05:59:06.233Z,98127.22
2023-04-11T06:01:34.811Z,98121.09
2023-04-11T06:04:04.338Z,98119.59
2023-04-11T06:06:34.006Z,98119.59
2023-04-11T06:09:02.057Z,98112.59
2023-04-11T06:11:30.991Z,98115.94
2023-04-11T06:13:59.019Z,98108.00
2023-04-11T06:16:27.148Z,98104.63
2023-04-11T06:18:55.206Z,98098.97
2023-04-11T06:21:24.595Z,98093.31
2023-04-11T06:23:52.581Z,98081.28
2023-04-11T06:26:20.733Z,98082.06
2023-04-11T06:28:48.704Z,98083.41
2023-04-11T06:31:16.804Z,98086.56
2023-04-11T06:33:45.096Z,98080.69
2023-04-11T06:36:13.400Z,98071.97
2023-04-11T06:38:43.331Z,98081.25
2023-04-11T06:41:11.432Z,98069.69
2023-04-11T06:43:39.440Z,98072.81
2023-04-11T06:46:09.041Z,98069.84
2023-04-11T06:48:37.217Z,98071.38
2023-04-11T06:51:05.694Z,98066.22
2023-04-11T06:53:33.735Z,98062.84
2023-04-11T06:56:04.263Z,98073.13
2023-04-11T06:58:32.371Z,98070.44
2023-04-11T07:01:00.677Z,98075.47
2023-04-11T07:03:28.789Z,98077.78
2023-04-11T07:05:57.040Z,98064.19
2023-04-11T07:08:25.068Z,98069.78
2023-04-11T07:10:53.072Z,98062.31
2023-04-11T07:13:22.447Z,98067.06
2023-04-11T07:15:50.469Z,98054.53
2023-04-11T07:18:18.547Z,98061.84
2023-04-11T07:20:46.573Z,98054.09
2023-04-11T07:23:14.622Z,98057.94
2023-04-11T07:25:44.021Z,98046.53
2023-04-11T07:28:12.115Z,98046.72
2023-04-11T07:30:42.570Z,98044.09
2023-04-11T07:33:11.108Z,98047.91
2023-04-11T07:35:39.184Z,98050.53
2023-04-11T07:38:09.563Z,98037.41
2023-04-11T07:40:37.628Z,98035.91
2023-04-11T07:43:05.727Z,98030.03
2023-04-11T07:45:34.426Z,98032.94
2023-04-11T07:48:03.934Z,98033.28
2023-04-11T07:50:32.036Z,98020.28
2023-04-11T07:52:59.997Z,98012.97
2023-04-11T07:55:28.089Z,98015.56
2023-04-11T07:57:56.104Z,98008.88
2023-04-11T08:00:25.111Z,97997.88
2023-04-11T08:02:53.475Z,97999.91
2023-04-11T08:05:23.318Z,98004.22
2023-04-11T08:07:51.409Z,97997.22
2023-04-11T08:10:19.424Z,97996.69
2023-04-11T08:12:47.418Z,97994.91
2023-04-11T08:15:15.726Z,97997.69
2023-04-11T08:17:43.917Z,97990.38
2023-04-11T08:20:13.985Z,97977.78
2023-04-11T08:22:44.857Z,97982.97
2023-04-11T08:25:13.990Z,97981.41
2023-04-11T08:27:42.474Z,97978.53
2023-04-11T08:30:11.018Z,97977.22
2023-04-11T08:32:42.034Z,97965.06
2023-04-11T08:35:11.310Z,97957.53
2023-04-11T08:37:39.475Z,97961.53
2023-04-11T08:40:11.678Z,97949.59
2023-04-11T08:42:39.686Z,97943.13
2023-04-11T08:45:10.568Z,97935.19
2023-04-11T08:47:39.104Z,97926.31
2023-04-11T08:50:08.965Z,97922.06
2023-04-11T08:52:39.461Z,97906.94
2023-04-11T08:55:09.874Z,97898.94
2023-04-11T08:57:38.302Z,97897.53
2023-04-11T09:00:14.636Z,97896.41
2023-04-11T09:02:57.098Z,97890.81
2023-04-11T09:05:30.185Z,97877.94
2023-04-11T09:07:59.089Z,97874.81
2023-04-11T09:10:29.238Z,97869.00
2023-04-11T09:12:57.820Z,97868.94
2023-04-11T09:15:27.935Z,97868.63
2023-04-11T09:17:59.681Z,97857.88
2023-04-11T09:20:30.415Z,97857.44
2023-04-11T09:22:59.977Z,97848.94
2023-04-11T09:25:29.775Z,97851.03
2023-04-11T09:28:11.584Z,97848.78
2023-04-11T09:30:39.628Z,97843.22
2023-04-11T09:33:21.429Z,97828.88
2023-04-11T09:35:50.714Z,97828.50
2023-04-11T09:38:29.732Z,97823.97
2023-04-11T09:41:00.047Z,97827.13
2023-04-11T09:43:28.293Z,97823.34
2023-04-11T09:46:18.433Z,97822.25
2023-04-11T09:49:00.918Z,97816.19
2023-04-11T09:51:36.446Z,97806.00
2023-04-11T09:54:06.496Z,97814.97
2023-04-11T09:56:36.402Z,97802.56
2023-04-11T09:59:05.272Z,97799.00
2023-04-11T10:01:33.739Z,97797.25
2023-04-11T10:04:01.999Z,97779.84
2023-04-11T10:06:34.327Z,97781.03
2023-04-11T10:09:08.488Z,97774.84
2023-04-11T10:11:38.588Z,97766.59
2023-04-11T10:14:06.755Z,97770.63
2023-04-11T10:16:34.823Z,97757.22
2023-04-11T10:19:25.073Z,97754.00
2023-04-11T10:21:53.254Z,97754.78
2023-04-11T10:24:22.227Z,97749.81
2023-04-11T10:26:53.573Z,97740.47
2023-04-11T10:29:48.440Z,97738.75
2023-04-11T10:32:23.851Z,97744.81
2023-04-11T10:35:23.745Z,97733.50
2023-04-11T10:37:51.896Z,97730.88
2023-04-11T10:40:20.856Z,97723.47
2023-04-11T10:42:50.307Z,97724.91
2023-04-11T10:45:21.968Z,97715.81
2023-04-11T10:48:10.441Z,97724.84
2023-04-11T10:50:42.336Z,97717.19
2023-04-11T10:53:14.402Z,97716.25
2023-04-11T10:55:47.583Z,97714.19
2023-04-11T10:58:19.795Z,97713.47
2023-04-11T11:01:25.709Z,97720.81
2023-04-11T11:04:01.255Z,97726.41
2023-04-11T11:06:29.575Z,97710.84
2023-04-11T11:08:59.049Z,97713.72
2023-04-11T11:11:27.118Z,97703.97
2023-04-11T11:13:57.154Z,97700.88
2023-04-11T11:16:26.602Z,97702.38
2023-04-11T11:18:55.450Z,97703.25
2023-04-11T11:21:28.353Z,97695.31
2023-04-11T11:24:00.376Z,97700.63
2023-04-11T11:26:38.499Z,97698.19
2023-04-11T11:29:08.513Z,97691.88
2023-04-11T11:31:39.353Z,97690.59
2023-04-11T11:36:42.276Z,97681.38
2023-04-11T11:39:11.473Z,97681.81
2023-04-11T11:41:40.175Z,97674.69
2023-04-11T11:44:22.930Z,97672.34
2023-04-11T11:47:04.053Z,97666.66
2023-04-11T11:49:45.943Z,97664.16
2023-04-11T11:52:14.472Z,97667.75
2023-04-11T11:54:46.554Z,97663.28
2023-04-11T11:57:22.857Z,97657.84
2023-04-11T11:59:56.290Z,97656.91
2023-04-11T12:02:26.246Z,97648.97
2023-04-11T12:04:59.953Z,97649.06
2023-04-11T12:07:32.539Z,97642.41
2023-04-11T12:10:01.255Z,97648.00
2023-04-11T12:12:37.313Z,97644.28
2023-04-11T12:15:12.248Z,97642.38
2023-04-11T12:17:41.153Z,97632.94
2023-04-11T12:20:10.839Z,97638.09
2023-04-11T12:22:39.259Z,97631.19
2023-04-11T12:25:08.405Z,97628.97
2023-04-11T12:27:37.776Z,97624.09
2023-04-11T12:30:08.662Z,97619.19
2023-04-11T12:32:37.569Z,97621.69
2023-04-11T12:35:07.443Z,97617.84
2023-04-11T12:37:36.418Z,97613.72
2023-04-11T12:40:07.066Z,97617.59
2023-04-11T12:42:41.972Z,97616.06
2023-04-11T12:45:16.108Z,97611.91
2023-04-11T12:47:44.391Z,97606.34
2023-04-11T12:50:12.659Z,97601.38
2023-04-11T12:52:40.744Z,97595.69
2023-04-11T12:55:10.008Z,97581.91
2023-04-11T12:57:38.149Z,97591.97
2023-04-11T13:00:08.313Z,97586.81
2023-04-11T13:02:42.715Z,97578.84
2023-04-11T13:05:14.205Z,97575.63
2023-04-11T13:07:44.644Z,97569.28
2023-04-11T13:10:14.026Z,97574.78
2023-04-11T13:12:44.747Z,97565.75
2023-04-11T13:15:14.849Z,97564.16
2023-04-11T13:17:44.721Z,97563.56
2023-04-11T13:20:13.816Z,97564.06
2023-04-11T13:22:44.392Z,97556.31
2023-04-11T13:25:15.411Z,97552.63
2023-04-11T13:27:44.632Z,97552.00
2023-04-11T13:30:13.936Z,97551.75
2023-04-11T13:32:42.716Z,97546.44
2023-04-11T13:35:13.804Z,97548.22
2023-04-11T13:37:42.692Z,97543.03
2023-04-11T13:40:12.791Z,97540.19
2023-04-11T13:42:41.849Z,97533.75
2023-04-11T13:45:11.212Z,97527.47
2023-04-11T13:47:39.748Z,97516.03
2023-04-11T13:50:11.796Z,97515.00
2023-04-11T13:52:44.843Z,97522.44
2023-04-11T13:55:14.001Z,97517.13
2023-04-11T13:57:42.803Z,97521.19
2023-04-11T14:00:12.661Z,97517.66
2023-04-11T14:02:41.720Z,97512.16
2023-04-11T14:05:10.549Z,97507.13
2023-04-11T14:07:38.637Z,97500.72
2023-04-11T14:10:09.172Z,97498.66
2023-04-11T14:12:37.358Z,97488.28
2023-04-11T14:15:06.358Z,97488.03
2023-04-11T14:17:34.317Z,97488.53
2023-04-11T14:20:02.437Z,97480.56
2023-04-11T14:22:30.863Z,97477.34
2023-04-11T14:24:59.062Z,97476.16
2023-04-11T14:27:28.566Z,97477.66
2023-04-11T14:29:56.715Z,97479.25
2023-04-11T14:32:24.826Z,97474.63
2023-04-11T14:34:53.822Z,97474.38
2023-04-11T14:37:21.892Z,97479.94
2023-04-11T14:39:49.912Z,97479.56
2023-04-11T14:42:18.033Z,97475.97
2023-04-11T14:44:47.508Z,97475.06
2023-04-11T14:47:15.454Z,97475.47
2023-04-11T14:49:44.147Z,97472.25
2023-04-11T14:52:12.278Z,97469.94
2023-04-11T14:54:40.290Z,97473.91
2023-04-11T14:57:08.658Z,97468.84
2023-04-11T14:59:36.730Z,97457.78
2023-04-11T15:02:07.094Z,97460.06
2023-04-11T15:04:35.150Z,97458.22
2023-04-11T15:07:04.744Z,97468.88
2023-04-11T15:09:33.396Z,97458.97
2023-04-11T15:12:02.287Z,97457.78
2023-04-11T15:14:30.368Z,97456.28
2023-04-11T15:16:58.426Z,97448.47
2023-04-11T15:19:28.407Z,97452.19
2023-04-11T15:21:56.428Z,97452.44
2023-04-11T15:24:24.662Z,97447.19
2023-04-11T15:26:52.801Z,97450.38
2023-04-11T15:29:20.913Z,97438.25
2023-04-11T15:31:49.156Z,97438.16
2023-04-11T15:34:17.266Z,97441.00
2023-04-11T15:36:47.202Z,97436.97
2023-04-11T15:39:16.735Z,97432.31
2023-04-11T15:41:44.769Z,97429.88
2023-04-11T15:44:12.938Z,97426.59
2023-04-11T15:46:41.081Z,97422.72
2023-04-11T15:49:09.125Z,97417.75
2023-04-11T15:51:37.161Z,97412.94
2023-04-11T15:54:07.387Z,97415.19
2023-04-11T15:56:35.511Z,97411.81
2023-04-11T15:59:03.547Z,97405.72
2023-04-11T16:01:31.685Z,97400.47
2023-04-11T16:04:00.077Z,97395.78
2023-04-11T16:06:28.296Z,97396.38
2023-04-11T16:08:56.706Z,97389.69
2023-04-11T16:11:27.255Z,97386.94
2023-04-11T16:13:55.691Z,97396.06
2023-04-11T16:16:23.855Z,97400.34
2023-04-11T16:18:52.250Z,97402.41
2023-04-11T16:21:20.362Z,97423.84
2023-04-11T16:23:48.409Z,97472.19
2023-04-11T16:26:17.007Z,97503.38
2023-04-11T16:28:46.441Z,97496.63
2023-04-11T16:31:21.448Z,97499.94
2023-04-11T16:33:49.600Z,97495.50
2023-04-11T16:36:17.747Z,97501.00
2023-04-11T16:38:46.227Z,97506.59
2023-04-11T16:41:14.634Z,97504.09
2023-04-11T16:43:42.662Z,97505.34
2023-04-11T16:46:15.686Z,97511.34
2023-04-11T16:48:44.046Z,97517.41
2023-04-11T16:51:13.444Z,97521.69
2023-04-11T16:53:41.838Z,97515.16
2023-04-11T16:56:10.612Z,97527.69
2023-04-11T16:58:38.737Z,97510.56
2023-04-11T17:01:07.400Z,97526.09
2023-04-11T17:03:36.991Z,97532.22
2023-04-11T17:06:12.837Z,97526.09
2023-04-11T17:08:41.785Z,97541.00
2023-04-11T17:11:10.702Z,97543.50
2023-04-11T17:13:39.476Z,97552.56
2023-04-11T17:16:10.520Z,97553.44
2023-04-11T17:18:41.686Z,97553.81
2023-04-11T17:21:10.691Z,97550.22
2023-04-11T17:23:43.401Z,97551.50
2023-04-11T17:26:12.803Z,97548.03
2023-04-11T17:28:42.755Z,97534.94
2023-04-11T17:31:15.080Z,97565.97
2023-04-11T17:33:45.479Z,97559.72
2023-04-11T17:36:14.857Z,97544.97
2023-04-11T17:38:43.722Z,97550.03
2023-04-11T17:41:14.974Z,97565.03
2023-04-11T17:43:44.607Z,97549.28
2023-04-11T17:46:12.947Z,97552.78
2023-04-11T17:48:41.088Z,97566.72
2023-04-11T17:51:10.542Z,97569.81
2023-04-11T17:53:38.812Z,97561.69
2023-04-11T17:56:56.568Z,97557.41
2023-04-11T17:59:42.661Z,97564.25
2023-04-11T18:02:11.120Z,97570.88
2023-04-11T18:04:39.364Z,97569.75
2023-04-11T18:07:09.112Z,97561.22
2023-04-11T18:09:38.012Z,97566.69
2023-04-11T18:12:06.394Z,97562.81
2023-04-11T18:14:35.034Z,97566.34
2023-04-11T18:17:03.435Z,97571.59
2023-04-11T18:19:31.567Z,97570.22
2023-04-11T18:22:00.087Z,97578.34
2023-04-11T18:24:29.600Z,97578.41
2023-04-11T18:26:57.761Z,97581.78
2023-04-11T18:29:25.923Z,97579.66
2023-04-11T18:31:55.898Z,97586.34
2023-04-11T18:34:24.136Z,97588.41
2023-04-11T18:36:53.818Z,97587.06
2023-04-11T18:39:24.785Z,97595.13
2023-04-11T18:41:56.681Z,97594.69
2023-04-11T18:44:26.300Z,97591.28
2023-04-11T18:46:56.965Z,97590.34
2023-04-11T18:49:26.614Z,97596.69
2023-04-11T18:51:55.615Z,97592.69
2023-04-11T18:54:24.547Z,97595.16
2023-04-11T18:56:55.138Z,97598.44
2023-04-11T18:59:29.132Z,97605.97
2023-04-11T19:01:58.510Z,97608.22
2023-04-11T19:04:27.443Z,97612.28
2023-04-11T19:06:56.950Z,97617.25
2023-04-11T19:09:25.334Z,97613.66
2023-04-11T19:11:54.845Z,97628.09
2023-04-11T19:14:23.174Z,97642.03
2023-04-11T19:16:51.747Z,97645.81
2023-04-11T19:19:19.998Z,97645.78
2023-04-11T19:21:48.940Z,97660.00
2023-04-11T19:24:17.248Z,97641.69
2023-04-11T19:26:45.385Z,97637.16
2023-04-11T19:29:14.957Z,97656.31
2023-04-11T19:31:43.209Z,97654.41
2023-04-11T19:34:11.843Z,97646.56
2023-04-11T19:36:39.966Z,97645.06
2023-04-11T19:39:08.382Z,97646.31
2023-04-11T19:41:36.537Z,97654.16
2023-04-11T19:44:04.686Z,97650.06
2023-04-11T19:46:34.207Z,97667.81
2023-04-11T19:49:02.610Z,97646.53
2023-04-11T19:51:30.738Z,97658.16
2023-04-11T19:53:59.073Z,97659.50
2023-04-11T19:56:27.526Z,97658.66
2023-04-11T19:58:55.638Z,97657.91
2023-04-11T20:01:23.807Z,97646.91
2023-04-11T20:03:57.169Z,97670.03
2023-04-11T20:06:28.218Z,97667.59
2023-04-11T20:08:56.966Z,97646.53
2023-04-11T20:11:25.872Z,97653.69
2023-04-11T20:13:55.727Z,97663.59
2023-04-11T20:16:25.259Z,97664.03
2023-04-11T20:18:54.820Z,97676.47
2023-04-11T20:21:22.933Z,97674.91
2023-04-11T20:23:51.741Z,97670.72
2023-04-11T20:26:19.832Z,97669.50
2023-04-11T20:28:49.770Z,97669.97
2023-04-11T20:31:17.813Z,97693.88
2023-04-11T20:33:45.951Z,97677.97
2023-04-11T20:36:15.768Z,97678.59
2023-04-11T20:38:43.954Z,97689.38
2023-04-11T20:41:12.189Z,97665.69
2023-04-11T20:43:41.877Z,97673.78
2023-04-11T20:46:13.610Z,97667.75
2023-04-11T20:48:43.171Z,97668.31
2023-04-11T20:51:11.405Z,97668.03
2023-04-11T20:53:40.786Z,97684.16
2023-04-11T20:56:08.897Z,97675.53
2023-04-11T20:58:37.017Z,97671.56
2023-04-11T21:01:05.110Z,97682.28
2023-04-11T21:03:37.399Z,97683.75
2023-04-11T21:06:07.550Z,97674.19
2023-04-11T21:08:37.566Z,97667.66
2023-04-11T21:11:07.212Z,97672.75
2023-04-11T21:13:35.292Z,97674.50
2023-04-11T21:16:03.384Z,97673.25
2023-04-11T21:18:31.434Z,97678.44
2023-04-11T21:20:59.694Z,97686.78
2023-04-11T21:23:27.810Z,97687.31
2023-04-11T21:25:56.012Z,97680.50
2023-04-11T21:28:25.385Z,97676.09
2023-04-11T21:30:53.541Z,97687.69
2023-04-11T21:33:21.686Z,97676.47
2023-04-11T21:35:49.916Z,97685.00
2023-04-11T21:38:17.964Z,97681.34
2023-04-11T21:40:46.136Z,97686.03
2023-04-11T21:43:14.240Z,97684.94
2023-04-11T21:45:43.616Z,97678.56
2023-04-11T21:48:11.833Z,97675.53
2023-04-11T21:50:39.932Z,97674.44
2023-04-11T21:53:07.896Z,97671.41
2023-04-11T21:55:36.051Z,97674.22
2023-04-11T21:58:04.085Z,97674.06
2023-04-11T22:00:32.402Z,97674.94
2023-04-11T22:03:01.891Z,97670.78
2023-04-11T22:05:30.768Z,97676.63
2023-04-11T22:08:11.667Z,97668.81
2023-04-11T22:10:47.662Z,97672.69
2023-04-11T22:13:17.326Z,97673.00
2023-04-11T22:15:45.853Z,97682.94
2023-04-11T22:18:15.528Z,97676.47
2023-04-11T22:20:44.638Z,97679.38
2023-04-11T22:23:13.829Z,97678.06
2023-04-11T22:25:42.658Z,97677.81
2023-04-11T22:28:14.175Z,97685.47
2023-04-11T22:30:44.200Z,97684.00
2023-04-11T22:33:13.768Z,97671.25
2023-04-11T22:35:45.131Z,97690.88
2023-04-11T22:38:13.191Z,97696.00
2023-04-11T22:40:41.315Z,97688.00
2023-04-11T22:43:09.960Z,97684.69
2023-04-11T22:45:38.061Z,97694.22
2023-04-11T22:48:07.071Z,97687.00
2023-04-11T22:50:37.349Z,97694.84
2023-04-11T22:53:09.576Z,97687.88
2023-04-11T22:55:40.105Z,97684.03
2023-04-11T22:58:08.224Z,97681.13
2023-04-11T23:00:38.419Z,97684.94
2023-04-11T23:03:07.348Z,97684.47
2023-04-11T23:05:39.602Z,97683.84
2023-04-11T23:08:10.032Z,97681.97
2023-04-11T23:10:38.171Z,97678.94
2023-04-11T23:13:06.153Z,97675.22
2023-04-11T23:15:34.185Z,97671.31
2023-04-11T23:18:02.469Z,97673.66
2023-04-11T23:20:30.586Z,97672.41
2023-04-11T23:22:59.232Z,97662.94
2023-04-11T23:25:29.246Z,97666.78
2023-04-11T23:27:57.278Z,97658.31
2023-04-11T23:30:25.415Z,97662.06
2023-04-11T23:32:54.521Z,97669.75
2023-04-11T23:35:23.763Z,97663.59
2023-04-11T23:37:51.995Z,97655.69
2023-04-11T23:40:20.161Z,97661.25
2023-04-11T23:42:49.856Z,97640.25
2023-04-11T23:45:22.358Z,97647.50
2023-04-11T23:47:50.539Z,97646.47
2023-04-11T23:50:18.937Z,97651.53
2023-04-11T23:52:47.676Z,97652.31
2023-04-11T23:55:15.810Z,97653.28
2023-04-11T23:57:43.808Z,97656.47
